Time;durP1;ratioP1;P1;durP2;ratioP2;P2;SDS_P1;SDS_P2;PMS_P1;PMS_P2;Temp;Humidity;BMP_temperature;BMP_pressure;BME280_temperature;BME280_humidity;BME280_pressure;Samples;Min_cycle;Max_cycle;Signal;HPM_P1;HPM_P2
2021/12/23 00:01:00;;;;;;;62.88;31.65;;;10.80;99.90;;;;;;6203158;23;20352;-71
2021/12/23 00:03:26;;;;;;;54.05;29.27;;;10.70;99.90;;;;;;6179174;23;20023;-71
2021/12/23 00:05:55;;;;;;;53.40;30.17;;;10.80;99.90;;;;;;6208993;23;20020;-72
2021/12/23 00:08:22;;;;;;;54.22;28.92;;;10.80;99.90;;;;;;6206267;23;20027;-71
2021/12/23 00:10:49;;;;;;;47.65;27.88;;;10.80;99.90;;;;;;6180512;23;20012;-73
2021/12/23 00:13:16;;;;;;;48.75;29.05;;;10.80;99.90;;;;;;6206978;23;20060;-71
2021/12/23 00:23:57;;;;;;;56.65;29.92;;;10.80;99.90;;;;;;6206262;23;20031;-73
2021/12/23 00:26:24;;;;;;;56.47;29.55;;;10.90;99.90;;;;;;6207060;23;20329;-71
2021/12/23 00:28:51;;;;;;;49.50;28.05;;;10.90;99.90;;;;;;6180136;23;20021;-72
2021/12/23 00:31:17;;;;;;;46.65;27.58;;;10.90;99.90;;;;;;6179888;23;20452;-72
2021/12/23 00:33:44;;;;;;;56.88;30.52;;;10.90;99.90;;;;;;6176203;23;20020;-73
2021/12/23 00:36:12;;;;;;;56.30;29.02;;;10.90;99.90;;;;;;6202648;23;20027;-73
2021/12/23 00:38:44;;;;;;;54.53;30.30;;;10.90;99.90;;;;;;6207238;23;20016;-71
2021/12/23 00:41:11;;;;;;;45.58;28.05;;;10.90;99.90;;;;;;6179358;23;20028;-73
2021/12/23 00:43:38;;;;;;;46.20;28.25;;;10.90;99.90;;;;;;6208454;23;20017;-71
2021/12/23 00:46:05;;;;;;;54.28;29.80;;;10.90;99.90;;;;;;6208238;23;20021;-72
2021/12/23 00:48:35;;;;;;;52.03;29.30;;;10.90;99.90;;;;;;6209058;23;20020;-72
2021/12/23 00:51:03;;;;;;;56.10;32.22;;;10.90;99.90;;;;;;6158759;23;20095;-74
2021/12/23 00:53:36;;;;;;;49.83;29.85;;;10.90;99.90;;;;;;6208080;23;20020;-74
2021/12/23 00:56:02;;;;;;;57.47;31.38;;;10.90;99.90;;;;;;6182570;23;20028;-72
2021/12/23 00:58:28;;;;;;;56.88;30.55;;;10.90;99.90;;;;;;6207951;23;20352;-71
2021/12/23 01:00:54;;;;;;;56.22;31.45;;;10.90;99.90;;;;;;6209181;23;20027;-75
2021/12/23 01:03:21;;;;;;;57.13;30.83;;;10.90;99.90;;;;;;6207293;23;20025;-75
2021/12/23 01:05:47;;;;;;;47.67;29.60;;;10.90;99.90;;;;;;6159107;23;20871;-72
2021/12/23 01:08:19;;;;;;;50.47;30.25;;;10.90;99.90;;;;;;6207081;23;20506;-71
2021/12/23 01:10:55;;;;;;;50.15;28.98;;;11.00;99.90;;;;;;6191113;23;20076;-70
2021/12/23 01:13:26;;;;;;;49.35;30.45;;;11.00;99.90;;;;;;6179085;23;20443;-72
2021/12/23 01:18:53;;;;;;;55.70;31.60;;;11.10;99.90;;;;;;6110358;23;20018;-73
2021/12/23 01:21:20;;;;;;;50.33;29.17;;;11.00;99.90;;;;;;6179426;23;20021;-70
2021/12/23 01:23:50;;;;;;;50.70;28.83;;;11.10;99.90;;;;;;6158294;23;20016;-71
2021/12/23 01:26:20;;;;;;;52.00;29.30;;;11.10;99.90;;;;;;6205757;23;20016;-71
2021/12/23 01:28:54;;;;;;;52.40;30.23;;;11.10;99.90;;;;;;6181276;23;20023;-71
2021/12/23 01:31:23;;;;;;;51.03;29.48;;;11.10;99.90;;;;;;6207348;23;20025;-71
2021/12/23 01:33:49;;;;;;;53.75;29.40;;;11.00;99.90;;;;;;6185277;23;20515;-72
2021/12/23 01:36:16;;;;;;;53.08;30.63;;;11.00;99.90;;;;;;6179553;23;20017;-73
2021/12/23 01:38:42;;;;;;;54.40;30.20;;;11.00;99.90;;;;;;6205735;23;20027;-71
2021/12/23 01:41:08;;;;;;;52.80;30.17;;;10.90;99.90;;;;;;6205332;23;20468;-72
2021/12/23 01:43:35;;;;;;;49.55;28.27;;;11.00;99.90;;;;;;6204875;23;20519;-72
2021/12/23 01:46:01;;;;;;;47.75;29.08;;;11.00;99.90;;;;;;6207075;23;20027;-72
2021/12/23 01:48:28;;;;;;;53.72;31.08;;;11.00;99.90;;;;;;6178553;23;20448;-72
2021/12/23 01:50:54;;;;;;;45.55;26.15;;;11.00;99.90;;;;;;6156490;23;20396;-72
2021/12/23 01:53:20;;;;;;;44.40;27.67;;;11.00;99.90;;;;;;6179292;23;20066;-72
2021/12/23 01:55:46;;;;;;;46.03;27.80;;;11.00;99.90;;;;;;6180223;23;20039;-71
2021/12/23 01:58:13;;;;;;;44.03;27.55;;;11.00;99.90;;;;;;6205739;23;20071;-72
2021/12/23 02:00:43;;;;;;;45.13;29.35;;;11.00;99.90;;;;;;6206729;23;20068;-71
2021/12/23 02:03:10;;;;;;;43.22;28.20;;;11.00;99.90;;;;;;6179815;23;20115;-71
2021/12/23 02:05:38;;;;;;;45.72;28.75;;;11.00;99.90;;;;;;6206631;23;20456;-71
2021/12/23 02:08:04;;;;;;;46.95;28.88;;;11.00;99.90;;;;;;6179788;23;20165;-72
2021/12/23 02:10:30;;;;;;;48.58;29.15;;;11.00;99.90;;;;;;6179700;23;20019;-72
2021/12/23 02:12:57;;;;;;;47.05;29.38;;;11.00;99.90;;;;;;6207921;23;20084;-72
2021/12/23 02:15:24;;;;;;;50.58;31.20;;;11.10;99.90;;;;;;6153906;23;20079;-72
2021/12/23 02:17:51;;;;;;;47.40;28.67;;;11.10;99.90;;;;;;6181185;23;20424;-70
2021/12/23 02:20:23;;;;;;;52.28;31.20;;;11.00;99.90;;;;;;6173378;23;20016;-71
2021/12/23 02:22:50;;;;;;;44.60;27.92;;;11.00;99.90;;;;;;6161446;23;20008;-72
2021/12/23 02:25:17;;;;;;;47.40;29.55;;;11.00;99.90;;;;;;6178968;23;20571;-71
2021/12/23 02:27:44;;;;;;;46.05;28.33;;;11.00;99.90;;;;;;6179778;23;20016;-71
2021/12/23 02:30:19;;;;;;;47.03;28.00;;;11.00;99.90;;;;;;6178852;23;20052;-72
2021/12/23 02:32:45;;;;;;;53.22;30.15;;;11.00;99.90;;;;;;6180243;23;20483;-73
2021/12/23 02:35:15;;;;;;;50.72;30.23;;;11.00;99.90;;;;;;6206265;23;20086;-72
2021/12/23 02:37:42;;;;;;;47.72;28.75;;;11.00;99.90;;;;;;6180145;23;20023;-70
2021/12/23 02:40:10;;;;;;;44.53;27.85;;;11.00;99.90;;;;;;6179922;23;20028;-71
2021/12/23 02:42:38;;;;;;;50.28;30.70;;;11.00;99.90;;;;;;6179197;23;20013;-71
2021/12/23 02:45:09;;;;;;;45.20;28.65;;;11.00;99.90;;;;;;6205778;23;20023;-71
2021/12/23 02:47:36;;;;;;;53.92;30.65;;;11.00;99.90;;;;;;6180225;23;20495;-71
2021/12/23 02:50:03;;;;;;;46.03;28.10;;;11.00;99.90;;;;;;6179479;23;20016;-70
2021/12/23 02:52:30;;;;;;;45.20;27.75;;;11.00;99.90;;;;;;6207027;23;20029;-71
2021/12/23 02:54:57;;;;;;;48.03;29.92;;;11.00;99.90;;;;;;6181052;23;20020;-72
2021/12/23 02:57:25;;;;;;;45.22;28.10;;;11.00;99.90;;;;;;6205752;23;20023;-73
2021/12/23 02:59:51;;;;;;;54.67;30.50;;;11.00;99.90;;;;;;6183592;23;20429;-72
2021/12/23 03:02:18;;;;;;;45.50;27.38;;;11.00;99.90;;;;;;6179067;23;20013;-72
2021/12/23 03:04:44;;;;;;;47.28;29.00;;;11.00;99.90;;;;;;6179247;23;20474;-72
2021/12/23 03:07:10;;;;;;;45.97;26.63;;;11.00;99.90;;;;;;6206103;23;20044;-72
2021/12/23 03:09:36;;;;;;;44.03;26.73;;;11.00;99.90;;;;;;6180202;23;20373;-71
2021/12/23 03:12:02;;;;;;;42.28;26.05;;;11.00;99.90;;;;;;6178776;23;20109;-71
2021/12/23 03:14:28;;;;;;;48.60;29.95;;;11.00;99.90;;;;;;6206423;23;20325;-71
2021/12/23 03:16:54;;;;;;;49.75;28.48;;;11.00;99.90;;;;;;6205419;23;20128;-71
2021/12/23 03:19:20;;;;;;;44.17;26.98;;;11.00;99.90;;;;;;6206209;23;20024;-71
2021/12/23 03:21:46;;;;;;;43.67;26.52;;;11.00;99.90;;;;;;6203564;23;20012;-70
2021/12/23 03:24:15;;;;;;;46.08;28.42;;;11.00;99.90;;;;;;6204918;23;20036;-71
2021/12/23 03:26:41;;;;;;;46.53;28.13;;;11.00;99.90;;;;;;6179724;23;20403;-71
2021/12/23 03:29:08;;;;;;;53.85;29.67;;;11.00;99.90;;;;;;6205763;23;20012;-71
2021/12/23 03:31:35;;;;;;;49.65;29.33;;;11.00;99.90;;;;;;6206887;23;20016;-71
2021/12/23 03:34:02;;;;;;;46.28;27.95;;;11.00;99.90;;;;;;6186456;23;20107;-70
2021/12/23 03:36:28;;;;;;;56.28;31.08;;;11.00;99.90;;;;;;6179587;23;20024;-71
2021/12/23 03:38:54;;;;;;;49.75;30.42;;;11.00;99.90;;;;;;6180777;23;20471;-71
2021/12/23 03:41:20;;;;;;;55.63;31.00;;;11.00;99.90;;;;;;6181580;23;20016;-71
2021/12/23 03:43:46;;;;;;;55.17;32.88;;;11.00;99.90;;;;;;6181342;23;20090;-71
2021/12/23 03:46:12;;;;;;;51.78;31.52;;;11.00;99.90;;;;;;6207593;23;20090;-71
2021/12/23 03:48:38;;;;;;;51.13;30.25;;;11.00;99.90;;;;;;6185160;23;20016;-71
2021/12/23 03:51:05;;;;;;;60.30;32.70;;;11.00;99.90;;;;;;6207085;23;20017;-70
2021/12/23 03:53:31;;;;;;;54.03;31.17;;;11.00;99.90;;;;;;6182476;23;20035;-71
2021/12/23 03:55:57;;;;;;;53.60;31.35;;;11.00;99.90;;;;;;6157282;23;20464;-71
2021/12/23 03:58:24;;;;;;;62.55;34.72;;;11.00;99.90;;;;;;6205646;23;20044;-72
2021/12/23 04:00:50;;;;;;;57.78;33.35;;;11.00;99.90;;;;;;6207974;23;20059;-71
2021/12/23 04:03:17;;;;;;;59.80;33.25;;;11.00;99.90;;;;;;6180206;23;20042;-70
2021/12/23 04:05:43;;;;;;;66.13;34.58;;;11.00;99.90;;;;;;6182004;23;20012;-73
2021/12/23 04:08:10;;;;;;;62.85;33.17;;;11.00;99.90;;;;;;6181241;23;20099;-70
2021/12/23 04:10:36;;;;;;;63.38;35.47;;;11.00;99.90;;;;;;6206928;23;20512;-71
2021/12/23 04:13:03;;;;;;;69.82;35.25;;;11.00;99.90;;;;;;6181725;23;20048;-71
2021/12/23 04:15:29;;;;;;;72.47;37.10;;;11.00;99.90;;;;;;6180595;23;20012;-70
2021/12/23 04:17:55;;;;;;;59.50;32.60;;;11.00;99.90;;;;;;6207943;23;20765;-71
2021/12/23 04:20:30;;;;;;;66.80;36.58;;;11.00;99.90;;;;;;6207360;23;20020;-71
2021/12/23 04:22:57;;;;;;;69.68;36.17;;;11.00;99.90;;;;;;6208578;23;20135;-71
2021/12/23 04:25:25;;;;;;;67.57;35.83;;;11.00;99.90;;;;;;6205546;23;20615;-71
2021/12/23 04:27:54;;;;;;;66.25;34.80;;;11.00;99.90;;;;;;6182004;23;20444;-71
2021/12/23 04:30:22;;;;;;;56.83;32.60;;;11.10;99.90;;;;;;6206376;23;20021;-70
2021/12/23 04:32:48;;;;;;;62.05;32.55;;;11.10;99.90;;;;;;6208496;23;20021;-72
2021/12/23 04:35:15;;;;;;;53.30;30.70;;;11.00;99.90;;;;;;6206327;23;20017;-71
2021/12/23 04:37:42;;;;;;;55.05;30.80;;;11.10;99.90;;;;;;6180824;23;20066;-70
2021/12/23 04:40:10;;;;;;;57.40;30.52;;;11.00;99.90;;;;;;6207008;23;20044;-70
2021/12/23 04:42:37;;;;;;;54.20;30.42;;;11.00;99.90;;;;;;6180617;23;20020;-71
2021/12/23 04:45:05;;;;;;;57.13;30.38;;;11.00;99.90;;;;;;6207296;23;20032;-70
2021/12/23 04:47:32;;;;;;;53.33;28.23;;;11.00;99.90;;;;;;6209756;23;20012;-69
2021/12/23 04:49:58;;;;;;;47.30;26.70;;;11.00;99.90;;;;;;6180940;23;20044;-72
2021/12/23 04:52:24;;;;;;;54.55;27.90;;;11.00;99.90;;;;;;6179629;23;20017;-70
2021/12/23 04:54:50;;;;;;;55.05;29.55;;;11.00;99.90;;;;;;6156523;23;20019;-71
2021/12/23 04:57:16;;;;;;;53.30;27.95;;;11.00;99.90;;;;;;6205772;23;20095;-72
2021/12/23 04:59:42;;;;;;;55.80;30.80;;;11.00;99.90;;;;;;6181208;23;20017;-72
2021/12/23 05:02:08;;;;;;;55.72;29.20;;;11.00;99.90;;;;;;6206702;23;20466;-71
2021/12/23 05:04:35;;;;;;;56.70;30.42;;;11.00;99.90;;;;;;6180000;23;20016;-71
2021/12/23 05:07:02;;;;;;;56.53;29.38;;;11.10;99.90;;;;;;6208050;23;20080;-71
2021/12/23 05:09:27;;;;;;;51.10;29.35;;;11.10;99.90;;;;;;6206755;23;20036;-72
2021/12/23 05:11:53;;;;;;;52.38;28.52;;;11.10;99.90;;;;;;6206392;23;20048;-71
2021/12/23 05:14:19;;;;;;;53.15;28.20;;;11.10;99.90;;;;;;6156405;23;20353;-70
2021/12/23 05:16:45;;;;;;;49.00;26.70;;;11.10;99.90;;;;;;6208002;23;20023;-71
2021/12/23 05:19:11;;;;;;;50.83;29.77;;;11.10;99.90;;;;;;6206294;23;20020;-70
2021/12/23 05:21:39;;;;;;;49.63;27.55;;;11.20;99.90;;;;;;6155722;23;20012;-71
2021/12/23 05:24:05;;;;;;;48.65;28.10;;;11.10;99.90;;;;;;6206959;23;20029;-72
2021/12/23 05:26:31;;;;;;;52.92;29.30;;;11.10;99.90;;;;;;6155761;23;20008;-71
2021/12/23 05:28:57;;;;;;;53.72;29.30;;;11.10;99.90;;;;;;6208132;23;20020;-71
2021/12/23 05:31:24;;;;;;;52.67;28.20;;;11.20;99.90;;;;;;6207384;23;20731;-71
2021/12/23 05:33:51;;;;;;;47.67;27.67;;;11.20;99.90;;;;;;6180353;23;20027;-71
2021/12/23 05:36:17;;;;;;;60.83;30.92;;;11.20;99.90;;;;;;6206285;23;20394;-72
2021/12/23 05:38:43;;;;;;;50.78;28.30;;;11.20;99.90;;;;;;6206189;23;20027;-72
2021/12/23 05:41:08;;;;;;;49.83;27.17;;;11.20;99.90;;;;;;6205794;23;20025;-70
2021/12/23 05:43:36;;;;;;;40.55;23.73;;;11.20;99.90;;;;;;6208585;23;20144;-72
2021/12/23 05:46:02;;;;;;;33.40;19.63;;;11.20;99.90;;;;;;6180000;23;20017;-72
2021/12/23 05:48:28;;;;;;;36.45;19.90;;;11.20;99.90;;;;;;6178175;23;20016;-71
2021/12/23 05:50:55;;;;;;;32.47;18.15;;;11.20;99.90;;;;;;6180693;23;20137;-72
2021/12/23 05:53:21;;;;;;;20.10;13.73;;;11.20;99.90;;;;;;6204509;23;20464;-71
2021/12/23 05:55:47;;;;;;;22.08;13.32;;;11.20;99.90;;;;;;6180700;23;20066;-70
2021/12/23 05:58:13;;;;;;;17.30;11.52;;;11.20;99.90;;;;;;6177862;23;20430;-72
2021/12/23 06:00:39;;;;;;;14.73;10.18;;;11.10;99.90;;;;;;6206228;23;20090;-70
2021/12/23 06:03:06;;;;;;;16.67;10.60;;;11.10;99.90;;;;;;6179541;23;20032;-71
2021/12/23 06:05:33;;;;;;;14.85;9.40;;;11.10;99.90;;;;;;6205222;23;20023;-71
2021/12/23 06:07:59;;;;;;;16.70;9.27;;;11.10;99.90;;;;;;6179603;23;20459;-70
2021/12/23 06:10:25;;;;;;;9.63;6.30;;;11.10;99.90;;;;;;6178973;23;20083;-71
2021/12/23 06:12:51;;;;;;;12.25;8.10;;;11.00;99.90;;;;;;6206745;23;20028;-71
2021/12/23 06:15:17;;;;;;;15.75;9.70;;;11.10;99.90;;;;;;6205290;23;20020;-71
2021/12/23 06:17:45;;;;;;;12.55;8.77;;;11.20;99.90;;;;;;6180197;23;20024;-70
2021/12/23 06:20:12;;;;;;;10.15;7.15;;;11.20;99.90;;;;;;6178068;23;20039;-72
2021/12/23 06:22:39;;;;;;;9.80;7.60;;;11.20;99.90;;;;;;6185590;23;20747;-71
2021/12/23 06:25:07;;;;;;;13.15;9.15;;;11.10;99.90;;;;;;6178952;23;20090;-71
2021/12/23 06:27:34;;;;;;;13.13;9.18;;;11.10;99.90;;;;;;6206495;23;20026;-74
2021/12/23 06:30:00;;;;;;;15.50;10.20;;;11.10;99.90;;;;;;6207385;23;20316;-70
2021/12/23 06:32:27;;;;;;;17.38;10.68;;;11.10;99.90;;;;;;6178344;23;20027;-71
2021/12/23 06:34:52;;;;;;;15.77;10.50;;;11.10;99.90;;;;;;6206919;23;20017;-71
2021/12/23 06:37:18;;;;;;;14.10;9.27;;;11.10;99.90;;;;;;6205082;23;20083;-71
2021/12/23 06:39:47;;;;;;;13.85;9.57;;;11.20;99.90;;;;;;6206996;23;20021;-72
2021/12/23 06:42:13;;;;;;;14.43;10.18;;;11.10;99.90;;;;;;6205417;23;20020;-70
2021/12/23 06:44:40;;;;;;;14.55;9.82;;;11.10;99.90;;;;;;6180046;23;20036;-70
2021/12/23 06:47:06;;;;;;;12.57;8.57;;;11.10;99.90;;;;;;6156204;23;20021;-71
2021/12/23 06:49:33;;;;;;;10.25;7.25;;;11.10;99.90;;;;;;6181286;23;20013;-71
2021/12/23 06:52:00;;;;;;;8.25;5.45;;;11.10;99.90;;;;;;6207292;23;20087;-71
2021/12/23 06:54:29;;;;;;;8.32;5.35;;;11.00;99.90;;;;;;6156346;23;20071;-71
2021/12/23 06:56:56;;;;;;;8.35;5.55;;;11.10;99.90;;;;;;6181206;23;20028;-71
2021/12/23 06:59:22;;;;;;;8.07;5.55;;;11.10;99.90;;;;;;6153133;23;20034;-72
2021/12/23 07:01:49;;;;;;;7.57;5.07;;;11.10;99.90;;;;;;6207795;23;20093;-72
2021/12/23 07:04:19;;;;;;;8.82;4.72;;;11.10;99.90;;;;;;6178520;23;20147;-70
2021/12/23 07:09:30;;;;;;;7.22;4.07;;;11.10;99.90;;;;;;6185624;23;20019;-71
2021/12/23 07:11:55;;;;;;;9.55;4.80;;;11.00;99.90;;;;;;6182633;23;20099;-72
2021/12/23 07:14:22;;;;;;;7.75;4.55;;;11.00;99.90;;;;;;6156538;23;20024;-71
2021/12/23 07:16:49;;;;;;;9.23;4.78;;;11.00;99.90;;;;;;6208938;23;20392;-69
2021/12/23 07:19:15;;;;;;;7.55;5.28;;;11.10;99.90;;;;;;6179463;23;20020;-70
2021/12/23 07:21:41;;;;;;;9.65;5.40;;;11.10;99.90;;;;;;6184643;23;20119;-72
2021/12/23 07:24:07;;;;;;;6.88;4.97;;;11.10;99.90;;;;;;6181127;23;20017;-72
2021/12/23 07:26:35;;;;;;;7.05;5.28;;;11.00;99.90;;;;;;6207538;23;20017;-71
2021/12/23 07:29:01;;;;;;;12.43;6.03;;;11.10;99.90;;;;;;6208418;23;20050;-72
2021/12/23 07:31:26;;;;;;;11.40;5.38;;;11.10;99.90;;;;;;6181756;23;20176;-71
2021/12/23 07:33:53;;;;;;;7.80;5.45;;;11.10;99.90;;;;;;6171394;23;20048;-71
2021/12/23 07:36:22;;;;;;;7.90;5.75;;;11.10;99.90;;;;;;6167836;23;20024;-72
2021/12/23 07:38:51;;;;;;;10.85;5.70;;;11.10;99.90;;;;;;6164207;23;20020;-72
2021/12/23 07:41:17;;;;;;;11.95;5.72;;;11.10;99.90;;;;;;6180170;23;20024;-73
2021/12/23 07:43:56;;;;;;;11.65;5.63;;;11.10;99.90;;;;;;6181482;23;20013;-71
2021/12/23 07:46:22;;;;;;;7.50;5.57;;;11.10;99.90;;;;;;6179889;23;20020;-72
2021/12/23 07:48:48;;;;;;;8.50;5.82;;;11.10;99.90;;;;;;6181809;23;20016;-72
2021/12/23 07:51:15;;;;;;;9.23;6.05;;;11.10;99.90;;;;;;6180054;23;20027;-73
2021/12/23 07:53:41;;;;;;;12.25;6.70;;;11.10;99.90;;;;;;6167516;23;20032;-73
2021/12/23 07:56:08;;;;;;;13.45;6.55;;;11.20;99.90;;;;;;6173138;23;20078;-71
2021/12/23 07:58:34;;;;;;;12.65;6.10;;;11.20;99.90;;;;;;6150237;23;20013;-75
2021/12/23 08:01:00;;;;;;;10.93;6.03;;;11.20;99.90;;;;;;6146592;23;20025;-71
2021/12/23 08:03:26;;;;;;;12.60;6.82;;;11.20;99.90;;;;;;6200104;23;20012;-71
2021/12/23 08:05:52;;;;;;;9.55;5.85;;;11.20;99.90;;;;;;6172620;23;20026;-71
2021/12/23 08:08:19;;;;;;;15.52;7.22;;;11.30;99.90;;;;;;6180101;23;20516;-72
2021/12/23 08:10:46;;;;;;;17.23;7.30;;;11.30;99.90;;;;;;6181536;23;20024;-74
2021/12/23 08:13:13;;;;;;;12.40;7.13;;;11.30;99.90;;;;;;6135320;23;20023;-71
2021/12/23 08:15:39;;;;;;;13.10;6.70;;;11.30;99.90;;;;;;6167480;23;20322;-73
2021/12/23 08:18:05;;;;;;;10.85;7.25;;;11.30;99.90;;;;;;6164193;23;20028;-73
2021/12/23 08:20:31;;;;;;;12.73;7.00;;;11.30;99.90;;;;;;6207419;23;20016;-73
2021/12/23 08:22:57;;;;;;;16.50;7.20;;;11.40;99.90;;;;;;6208217;23;20032;-74
2021/12/23 08:25:24;;;;;;;32.28;9.38;;;11.30;99.90;;;;;;6206606;23;20099;-72
2021/12/23 08:27:51;;;;;;;16.67;7.55;;;11.50;99.90;;;;;;6180876;23;20027;-72
2021/12/23 08:30:19;;;;;;;10.32;6.47;;;11.40;99.90;;;;;;6207986;23;20599;-72
2021/12/23 08:32:47;;;;;;;11.60;7.07;;;11.40;99.90;;;;;;6182205;23;20112;-72
2021/12/23 08:35:13;;;;;;;10.65;6.53;;;11.40;99.90;;;;;;6207496;23;20406;-74
2021/12/23 08:37:41;;;;;;;14.45;7.18;;;11.50;99.90;;;;;;6209003;23;20380;-73
2021/12/23 08:40:09;;;;;;;12.25;7.63;;;11.50;99.90;;;;;;6207358;23;20479;-72
2021/12/23 08:42:36;;;;;;;15.73;8.00;;;11.60;99.90;;;;;;6207644;23;20028;-72
2021/12/23 08:45:04;;;;;;;15.07;8.43;;;11.70;99.90;;;;;;6158491;23;20024;-72
2021/12/23 08:47:30;;;;;;;12.68;8.85;;;11.80;99.90;;;;;;6206480;23;20023;-71
2021/12/23 08:49:57;;;;;;;12.23;8.77;;;11.80;99.90;;;;;;6211252;23;20350;-71
2021/12/23 08:52:23;;;;;;;16.15;9.40;;;12.00;99.90;;;;;;6180034;23;20425;-73
2021/12/23 08:54:50;;;;;;;14.27;9.48;;;12.20;99.90;;;;;;6181516;23;20016;-72
2021/12/23 08:57:16;;;;;;;11.88;9.45;;;12.20;99.90;;;;;;6181778;23;20041;-72
2021/12/23 08:59:42;;;;;;;14.32;9.27;;;12.30;99.90;;;;;;6207834;23;20031;-72
2021/12/23 09:02:08;;;;;;;15.43;8.60;;;12.30;99.90;;;;;;6200373;23;20009;-72
2021/12/23 09:04:35;;;;;;;14.75;8.82;;;12.30;99.90;;;;;;6176000;23;20356;-72
2021/12/23 09:07:02;;;;;;;15.02;8.68;;;12.40;99.90;;;;;;6198576;23;20051;-74
2021/12/23 09:09:31;;;;;;;13.52;8.98;;;12.40;99.90;;;;;;6132985;23;20023;-73
2021/12/23 09:11:58;;;;;;;14.35;9.30;;;12.40;99.90;;;;;;6199373;23;20131;-71
2021/12/23 09:14:25;;;;;;;15.75;9.23;;;12.50;99.90;;;;;;6171548;23;20092;-72
2021/12/23 09:16:51;;;;;;;13.82;9.20;;;12.50;99.90;;;;;;6174337;23;20501;-73
2021/12/23 09:19:17;;;;;;;13.82;9.48;;;12.50;99.90;;;;;;6168959;23;20079;-72
2021/12/23 09:21:44;;;;;;;19.70;10.00;;;12.60;99.90;;;;;;6173576;23;20020;-72
2021/12/23 09:24:10;;;;;;;15.50;10.18;;;12.60;99.90;;;;;;6206644;23;20040;-73
2021/12/23 09:26:47;;;;;;;15.48;9.70;;;12.70;99.90;;;;;;6207224;23;20016;-72
2021/12/23 09:32:39;;;;;;;15.02;9.00;;;12.70;99.90;;;;;;6204850;23;20021;-73
2021/12/23 09:34:45;;;;;;;18.08;10.98;;;12.70;99.90;;;;;;6197892;23;20059;-71
2021/12/23 09:37:12;;;;;;;18.67;10.70;;;12.80;99.90;;;;;;6191846;23;20039;-72
2021/12/23 09:39:38;;;;;;;20.67;13.20;;;12.80;99.90;;;;;;6196650;23;20071;-71
2021/12/23 09:42:05;;;;;;;20.88;11.35;;;12.80;99.90;;;;;;6200705;23;20282;-71
2021/12/23 09:44:31;;;;;;;18.02;11.93;;;12.90;99.90;;;;;;6148717;23;20155;-73
2021/12/23 09:47:02;;;;;;;22.92;12.38;;;12.90;99.90;;;;;;6178964;23;20064;-72
2021/12/23 09:49:30;;;;;;;19.00;12.20;;;12.90;99.90;;;;;;6173670;23;20788;-74
2021/12/23 09:52:03;;;;;;;19.80;11.43;;;13.00;99.90;;;;;;6203722;23;20425;-72
2021/12/23 09:54:31;;;;;;;18.58;11.48;;;13.00;99.90;;;;;;6168478;23;20016;-72
2021/12/23 09:56:57;;;;;;;19.92;12.63;;;13.10;99.90;;;;;;6172715;23;20064;-74
2021/12/23 09:59:27;;;;;;;20.48;12.27;;;13.10;99.90;;;;;;6171053;23;20028;-73
2021/12/23 10:01:55;;;;;;;21.92;12.75;;;13.20;99.90;;;;;;6199750;23;20021;-73
2021/12/23 10:04:21;;;;;;;22.02;11.52;;;13.30;99.90;;;;;;6195747;23;20549;-72
2021/12/23 10:06:50;;;;;;;24.63;11.07;;;13.10;99.90;;;;;;6170431;23;20017;-72
2021/12/23 10:09:37;;;;;;;23.25;12.52;;;13.20;99.90;;;;;;6144327;23;20043;-71
2021/12/23 10:31:58;;;;;;;19.35;10.57;;;13.20;99.90;;;;;;6153394;23;20016;-72
2021/12/23 10:37:19;;;;;;;;;;;13.20;99.90;;;;;;6199782;23;20535;-72
2021/12/23 10:39:48;;;;;;;15.35;10.70;;;13.30;99.90;;;;;;6172301;23;20674;-73
2021/12/23 10:42:24;;;;;;;18.05;11.43;;;13.30;99.90;;;;;;6198852;23;20717;-72
2021/12/23 10:44:59;;;;;;;23.92;11.70;;;13.30;99.90;;;;;;6170052;23;20013;-73
2021/12/23 10:47:50;;;;;;;23.80;11.52;;;13.30;99.90;;;;;;6182151;23;20939;-71
2021/12/23 10:50:31;;;;;;;17.75;10.70;;;13.30;99.90;;;;;;6171072;23;20445;-72
2021/12/23 10:53:06;;;;;;;17.38;11.90;;;13.30;99.90;;;;;;6170129;23;20012;-72
2021/12/23 10:58:18;;;;;;;15.02;11.02;;;13.40;99.90;;;;;;6199215;23;20059;-72
2021/12/23 11:00:49;;;;;;;16.75;11.00;;;13.50;99.90;;;;;;6198978;23;20009;-72
2021/12/23 11:42:23;;;;;;;19.17;12.05;;;13.60;99.90;;;;;;6182185;23;20040;-72
2021/12/23 11:44:49;;;;;;;26.67;11.25;;;13.50;99.90;;;;;;6157295;23;20028;-72
2021/12/23 11:47:17;;;;;;;20.02;9.93;;;13.50;99.90;;;;;;6152387;23;20020;-73
2021/12/23 11:49:46;;;;;;;16.98;10.00;;;13.50;99.90;;;;;;6203499;23;20027;-72
2021/12/23 11:52:13;;;;;;;21.10;11.10;;;13.60;99.90;;;;;;6160706;23;20055;-72
2021/12/23 11:54:42;;;;;;;15.25;10.50;;;13.60;99.90;;;;;;6173650;23;20338;-72
2021/12/23 11:57:17;;;;;;;16.90;10.52;;;13.60;99.90;;;;;;6174839;23;20027;-71
2021/12/23 12:00:07;;;;;;;18.08;10.32;;;13.50;99.90;;;;;;6203679;23;20016;-72
2021/12/23 12:02:34;;;;;;;19.67;11.18;;;13.50;99.90;;;;;;6177774;23;20123;-72
2021/12/23 12:05:05;;;;;;;20.02;11.05;;;13.50;99.90;;;;;;6181720;23;20039;-74
2021/12/23 12:07:31;;;;;;;21.35;11.88;;;13.50;99.90;;;;;;6200097;23;20075;-72
2021/12/23 12:10:01;;;;;;;21.35;11.65;;;13.50;99.90;;;;;;6204027;23;20498;-72
2021/12/23 12:12:29;;;;;;;17.88;11.00;;;13.50;99.90;;;;;;6174780;23;20012;-75
2021/12/23 12:14:58;;;;;;;15.43;9.82;;;13.50;99.90;;;;;;6205866;23;20008;-73
2021/12/23 12:17:23;;;;;;;20.65;10.93;;;13.50;99.90;;;;;;6176124;23;20122;-72
2021/12/23 12:20:03;;;;;;;24.02;11.05;;;13.50;99.90;;;;;;6183459;23;20055;-73
2021/12/23 12:22:55;;;;;;;23.02;13.38;;;13.50;99.90;;;;;;6207176;23;20016;-73
2021/12/23 12:25:26;;;;;;;17.73;11.88;;;13.50;99.90;;;;;;6168153;23;20012;-72
2021/12/23 12:28:14;;;;;;;16.55;11.18;;;13.60;99.90;;;;;;6209481;23;20016;-72
2021/12/23 12:30:50;;;;;;;21.92;12.05;;;13.50;99.90;;;;;;6174086;23;20058;-73
2021/12/23 12:33:19;;;;;;;25.15;13.75;;;13.60;99.90;;;;;;6199691;23;20029;-72
2021/12/23 12:36:04;;;;;;;17.85;12.35;;;13.60;99.90;;;;;;6203513;23;20235;-72
2021/12/23 12:38:37;;;;;;;22.38;13.40;;;13.60;99.90;;;;;;6178075;23;20020;-73
2021/12/23 12:41:18;;;;;;;21.02;12.13;;;13.70;99.90;;;;;;6175834;23;20069;-72
2021/12/23 12:43:47;;;;;;;16.48;11.25;;;13.70;99.90;;;;;;6173780;23;20013;-73
2021/12/23 12:46:38;;;;;;;18.02;12.13;;;13.70;99.90;;;;;;6172994;23;20103;-73
2021/12/23 12:49:26;;;;;;;21.52;12.32;;;13.70;99.90;;;;;;6134776;23;20023;-73
2021/12/23 12:51:55;;;;;;;17.58;11.10;;;13.60;99.90;;;;;;6172134;23;20033;-73
2021/12/23 12:54:30;;;;;;;20.92;12.68;;;13.60;99.90;;;;;;6201270;23;20021;-73
2021/12/23 12:56:59;;;;;;;23.60;12.65;;;13.60;99.90;;;;;;6175367;23;20016;-75
2021/12/23 12:59:31;;;;;;;16.55;11.07;;;13.60;99.90;;;;;;6203814;23;20017;-76
2021/12/23 13:01:59;;;;;;;27.05;12.70;;;13.60;99.90;;;;;;6179319;23;20013;-74
2021/12/23 13:04:46;;;;;;;23.52;12.52;;;13.70;99.90;;;;;;6177876;23;20013;-74
2021/12/23 13:07:35;;;;;;;19.33;11.30;;;13.80;99.90;;;;;;6177091;23;20025;-74
2021/12/23 13:10:10;;;;;;;18.55;11.85;;;13.70;99.90;;;;;;6184672;23;20027;-74
2021/12/23 13:12:53;;;;;;;19.50;11.88;;;13.80;99.90;;;;;;6183050;23;20504;-74
2021/12/23 13:15:23;;;;;;;18.40;11.73;;;13.90;99.90;;;;;;6208635;23;20377;-74
2021/12/23 13:18:12;;;;;;;19.67;12.27;;;13.80;99.90;;;;;;6181191;23;20005;-74
2021/12/23 13:20:50;;;;;;;18.17;11.50;;;13.80;99.90;;;;;;6162256;23;20079;-74
2021/12/23 13:23:22;;;;;;;17.60;11.35;;;13.70;99.90;;;;;;6208842;23;20016;-75
2021/12/23 13:25:58;;;;;;;17.35;10.70;;;13.80;99.90;;;;;;6182755;23;20013;-74
2021/12/23 13:28:34;;;;;;;21.55;11.68;;;13.80;99.90;;;;;;6208099;23;20455;-74
2021/12/23 13:31:03;;;;;;;20.92;10.80;;;14.00;99.90;;;;;;6183424;23;20027;-74
2021/12/23 13:33:29;;;;;;;15.43;10.57;;;14.00;99.90;;;;;;6207593;23;20142;-75
2021/12/23 13:35:55;;;;;;;16.20;10.77;;;14.00;99.90;;;;;;6157624;23;20020;-74
2021/12/23 13:38:39;;;;;;;17.88;10.77;;;14.00;99.90;;;;;;6209974;23;20020;-74
2021/12/23 13:41:18;;;;;;;16.70;10.63;;;13.90;99.90;;;;;;6181746;23;20135;-74
2021/12/23 13:43:43;;;;;;;18.83;9.93;;;13.90;99.90;;;;;;6182094;23;20016;-75
2021/12/23 13:46:10;;;;;;;12.57;9.10;;;13.90;99.90;;;;;;6208271;23;20027;-75
2021/12/23 13:48:53;;;;;;;17.05;10.63;;;13.90;99.90;;;;;;6207506;23;20447;-74
2021/12/23 13:51:22;;;;;;;18.73;9.88;;;13.90;99.90;;;;;;6180382;23;20020;-73
2021/12/23 13:53:48;;;;;;;21.83;10.30;;;13.90;99.90;;;;;;6207908;23;20021;-73
2021/12/23 13:56:16;;;;;;;19.77;11.18;;;13.90;99.90;;;;;;6207857;23;20026;-74
2021/12/23 13:58:42;;;;;;;18.83;11.52;;;13.90;99.90;;;;;;6181919;23;20021;-74